Time;durP1;ratioP1;P1;durP2;ratioP2;P2;SDS_P1;SDS_P2;PMS_P1;PMS_P2;Temp;Humidity;BMP_temperature;BMP_pressure;BME280_temperature;BME280_humidity;BME280_pressure;Samples;Min_cycle;Max_cycle;Signal;HPM_P1;HPM_P2
2022/09/13 00:01:51;;;;;;;0.22;0.22;;;17.20;52.20;;;;;;4865755;29;20297;-36
2022/09/13 00:04:21;;;;;;;1.67;0.30;;;17.20;52.10;;;;;;4875497;29;20586;-37
2022/09/13 00:06:52;;;;;;;0.30;0.20;;;17.20;52.10;;;;;;4875586;29;20236;-36
2022/09/13 00:09:23;;;;;;;0.70;0.30;;;17.30;52.10;;;;;;4878297;29;20658;-37
2022/09/13 00:11:54;;;;;;;0.38;0.38;;;17.30;52.10;;;;;;4895030;29;20543;-44
2022/09/13 00:14:25;;;;;;;0.65;0.40;;;17.30;52.30;;;;;;4876687;29;20213;-36
2022/09/13 00:16:58;;;;;;;1.38;0.57;;;17.40;52.50;;;;;;4875735;29;20252;-38
2022/09/13 00:19:28;;;;;;;0.40;0.40;;;17.40;52.80;;;;;;4877085;29;20198;-36
2022/09/13 00:21:59;;;;;;;0.30;0.30;;;17.40;52.90;;;;;;4887249;29;20205;-37
2022/09/13 00:24:30;;;;;;;0.50;0.30;;;17.40;52.90;;;;;;4877536;29;20205;-38
2022/09/13 00:27:00;;;;;;;0.30;0.30;;;17.40;52.80;;;;;;4875573;29;20221;-37
2022/09/13 00:29:31;;;;;;;1.27;0.50;;;17.60;52.50;;;;;;4890219;29;20574;-36
2022/09/13 00:32:04;;;;;;;1.27;0.30;;;17.50;52.00;;;;;;4884930;29;20213;-36
2022/09/13 00:34:34;;;;;;;0.40;0.40;;;17.60;51.60;;;;;;4891432;29;20559;-38
2022/09/13 00:37:05;;;;;;;0.50;0.30;;;17.60;51.20;;;;;;4898556;29;20236;-37
2022/09/13 00:39:36;;;;;;;0.30;0.30;;;17.60;51.00;;;;;;4880861;29;20194;-36
2022/09/13 00:42:07;;;;;;;0.30;0.30;;;17.70;50.90;;;;;;4880069;29;20201;-36
2022/09/13 00:45:16;;;;;;;0.22;0.22;;;17.70;50.60;;;;;;4879811;29;20206;-36
2022/09/13 00:47:55;;;;;;;0.35;0.22;;;17.70;50.50;;;;;;4856487;29;20245;-36
2022/09/13 00:50:36;;;;;;;1.55;0.32;;;17.70;50.20;;;;;;4877891;29;20201;-35
2022/09/13 00:53:10;;;;;;;0.30;0.30;;;17.80;49.90;;;;;;4886030;29;20288;-36
2022/09/13 00:55:46;;;;;;;0.35;0.30;;;17.80;49.70;;;;;;4879892;29;20236;-36
2022/09/13 00:58:20;;;;;;;0.38;0.30;;;17.80;49.40;;;;;;4879666;29;20562;-40
2022/09/13 01:00:51;;;;;;;0.30;0.30;;;17.80;49.40;;;;;;4879136;29;20205;-35
2022/09/13 01:03:26;;;;;;;0.40;0.20;;;17.80;49.40;;;;;;4879713;29;20197;-36
2022/09/13 01:05:59;;;;;;;0.20;0.20;;;17.90;49.30;;;;;;4895866;29;20201;-37
2022/09/13 01:08:31;;;;;;;0.30;0.20;;;17.90;49.20;;;;;;4890759;29;20194;-37
2022/09/13 01:11:04;;;;;;;0.22;0.22;;;17.90;49.10;;;;;;4879481;29;20201;-40
2022/09/13 01:13:36;;;;;;;0.73;0.30;;;17.90;49.10;;;;;;4877872;29;20201;-39
2022/09/13 01:16:07;;;;;;;0.10;0.10;;;17.90;49.10;;;;;;4879328;29;20612;-40
2022/09/13 01:18:40;;;;;;;0.30;0.20;;;17.90;49.10;;;;;;4878964;29;20198;-36
2022/09/13 01:21:52;;;;;;;0.10;0.10;;;17.90;48.90;;;;;;4879711;29;20202;-36
2022/09/13 01:25:07;;;;;;;0.32;0.10;;;18.00;48.80;;;;;;4880242;29;20228;-36
2022/09/13 01:28:02;;;;;;;0.30;0.20;;;18.10;48.70;;;;;;4879303;29;20712;-36
2022/09/13 01:30:39;;;;;;;1.20;0.30;;;18.10;48.60;;;;;;4880013;29;20331;-42
2022/09/13 01:33:37;;;;;;;0.20;0.20;;;18.10;48.60;;;;;;4878827;29;20681;-40
2022/09/13 01:36:37;;;;;;;0.20;0.20;;;18.10;48.50;;;;;;4879396;29;20229;-36
2022/09/13 01:39:11;;;;;;;0.80;0.35;;;18.20;48.50;;;;;;4878100;29;20198;-36
2022/09/13 01:41:56;;;;;;;0.30;0.20;;;18.20;48.40;;;;;;4890461;29;20197;-36
2022/09/13 01:44:43;;;;;;;0.25;0.20;;;18.20;48.30;;;;;;4883629;29;20198;-39
2022/09/13 01:47:26;;;;;;;1.08;0.30;;;18.20;48.30;;;;;;4879423;29;20225;-37
2022/09/13 01:50:09;;;;;;;1.15;0.35;;;18.30;48.00;;;;;;4894888;29;20229;-36
2022/09/13 01:52:49;;;;;;;0.20;0.20;;;18.30;47.80;;;;;;4897850;29;20692;-36
2022/09/13 01:55:30;;;;;;;0.63;0.28;;;18.30;47.60;;;;;;4893182;29;20212;-37
2022/09/13 01:58:10;;;;;;;0.40;0.20;;;18.40;47.60;;;;;;4878718;29;20221;-36
2022/09/13 02:00:47;;;;;;;0.20;0.20;;;18.40;47.50;;;;;;4878639;29;20208;-40
2022/09/13 02:03:23;;;;;;;0.20;0.20;;;18.40;47.30;;;;;;4863936;29;20221;-37
2022/09/13 02:05:56;;;;;;;0.57;0.17;;;18.40;47.10;;;;;;4877810;29;20208;-37
2022/09/13 02:08:35;;;;;;;0.50;0.30;;;18.40;46.90;;;;;;4878656;29;20194;-37
2022/09/13 02:11:12;;;;;;;0.22;0.17;;;18.40;46.60;;;;;;4882889;29;20677;-43
2022/09/13 02:13:48;;;;;;;1.42;0.30;;;18.40;46.50;;;;;;4890728;29;20198;-38
2022/09/13 02:16:24;;;;;;;0.40;0.40;;;18.40;46.40;;;;;;4878682;29;20243;-45
2022/09/13 02:19:01;;;;;;;0.28;0.28;;;18.40;46.50;;;;;;4878635;29;20201;-40
2022/09/13 02:21:33;;;;;;;0.35;0.20;;;18.40;46.50;;;;;;4878461;29;20220;-41
2022/09/13 02:24:07;;;;;;;0.52;0.20;;;18.50;46.50;;;;;;4878470;29;20194;-40
2022/09/13 02:26:40;;;;;;;0.20;0.20;;;18.50;46.60;;;;;;4877584;29;20225;-47
2022/09/13 02:29:15;;;;;;;0.28;0.20;;;18.50;46.60;;;;;;4877640;29;20198;-37
2022/09/13 02:31:50;;;;;;;0.55;0.10;;;18.50;46.70;;;;;;4878748;29;20205;-36
2022/09/13 02:34:27;;;;;;;0.10;0.10;;;18.50;46.60;;;;;;4877079;29;20197;-36
2022/09/13 02:36:59;;;;;;;1.58;0.20;;;18.50;46.40;;;;;;4878549;29;20283;-38
2022/09/13 02:39:33;;;;;;;0.20;0.20;;;18.50;46.40;;;;;;4884309;29;20212;-36
2022/09/13 02:42:10;;;;;;;0.63;0.20;;;18.50;46.40;;;;;;4891505;29;20200;-34
2022/09/13 02:44:43;;;;;;;0.20;0.20;;;18.50;46.30;;;;;;4883225;29;20287;-36
2022/09/13 02:47:27;;;;;;;0.20;0.15;;;18.50;46.40;;;;;;4877523;29;20221;-38
2022/09/13 02:50:09;;;;;;;0.20;0.10;;;18.50;46.30;;;;;;4877860;29;20208;-39
2022/09/13 02:52:47;;;;;;;1.65;0.20;;;18.60;46.30;;;;;;4877065;29;20205;-36
2022/09/13 02:55:24;;;;;;;0.63;0.20;;;18.50;46.10;;;;;;4878142;29;20209;-42
2022/09/13 02:58:01;;;;;;;0.20;0.20;;;18.60;46.10;;;;;;4877023;29;20280;-43
2022/09/13 03:00:32;;;;;;;0.25;0.25;;;18.60;46.20;;;;;;4878220;29;20603;-36
2022/09/13 03:03:06;;;;;;;0.15;0.15;;;18.60;46.40;;;;;;4877441;29;20205;-38
2022/09/13 03:05:39;;;;;;;0.10;0.10;;;18.60;46.60;;;;;;4876816;29;20202;-36
2022/09/13 03:08:13;;;;;;;2.75;0.20;;;18.60;46.70;;;;;;4876583;29;20222;-37
2022/09/13 03:10:52;;;;;;;0.20;0.20;;;18.70;46.90;;;;;;4875895;29;20209;-36
2022/09/13 03:14:00;;;;;;;1.00;0.20;;;18.70;46.90;;;;;;4877497;29;20204;-36
2022/09/13 03:16:44;;;;;;;0.20;0.20;;;18.70;46.90;;;;;;4845178;29;20236;-37
2022/09/13 03:19:35;;;;;;;0.20;0.20;;;18.80;47.00;;;;;;4877086;29;20257;-36
2022/09/13 03:22:19;;;;;;;0.38;0.30;;;18.80;47.10;;;;;;4878217;29;20201;-36
2022/09/13 03:24:59;;;;;;;0.30;0.30;;;18.80;47.10;;;;;;4877313;29;20205;-36
2022/09/13 03:27:36;;;;;;;0.30;0.30;;;18.90;47.30;;;;;;4877633;29;20221;-36
2022/09/13 03:30:09;;;;;;;0.22;0.22;;;18.90;47.40;;;;;;4877179;29;20646;-49
2022/09/13 03:32:46;;;;;;;0.30;0.30;;;19.00;47.50;;;;;;4876918;29;20999;-36
2022/09/13 03:35:26;;;;;;;0.68;0.47;;;19.00;47.40;;;;;;4877108;29;20197;-36
2022/09/13 03:38:04;;;;;;;0.38;0.38;;;19.00;47.40;;;;;;4877023;29;20233;-38
2022/09/13 03:40:44;;;;;;;0.70;0.40;;;19.10;47.40;;;;;;4879309;29;20197;-36
2022/09/13 03:43:18;;;;;;;0.47;0.30;;;19.10;47.30;;;;;;4892828;29;20219;-37
2022/09/13 03:45:53;;;;;;;1.58;0.38;;;19.10;47.30;;;;;;4878195;29;20533;-42
2022/09/13 03:48:26;;;;;;;0.80;0.40;;;19.20;47.30;;;;;;4876703;29;20201;-36
2022/09/13 03:50:57;;;;;;;0.40;0.40;;;19.20;47.40;;;;;;4876000;29;20702;-41
2022/09/13 03:53:32;;;;;;;0.30;0.30;;;19.30;47.50;;;;;;4876220;29;20205;-39
2022/09/13 03:56:13;;;;;;;0.32;0.30;;;19.20;47.60;;;;;;4875949;29;20193;-39
2022/09/13 03:58:43;;;;;;;0.30;0.30;;;19.30;47.60;;;;;;4876446;29;20193;-36
2022/09/13 04:01:14;;;;;;;0.63;0.38;;;19.30;47.70;;;;;;4876944;29;20206;-37
2022/09/13 04:03:45;;;;;;;0.35;0.30;;;19.40;47.80;;;;;;4876437;29;20323;-36
2022/09/13 04:06:15;;;;;;;0.70;0.40;;;19.40;47.60;;;;;;4877326;29;20232;-39
2022/09/13 04:08:48;;;;;;;1.25;0.40;;;19.40;47.70;;;;;;4877109;29;20224;-36
2022/09/13 04:11:20;;;;;;;0.50;0.40;;;19.50;47.70;;;;;;4881797;29;20201;-38
2022/09/13 04:13:51;;;;;;;0.50;0.30;;;19.50;47.70;;;;;;4883553;29;20201;-36
2022/09/13 04:16:21;;;;;;;0.50;0.43;;;19.60;47.70;;;;;;4882746;29;20643;-37
2022/09/13 04:18:52;;;;;;;0.55;0.40;;;19.60;47.70;;;;;;4882290;29;20201;-42
2022/09/13 04:21:23;;;;;;;1.60;0.63;;;19.60;47.70;;;;;;4882766;29;20212;-37
2022/09/13 04:23:55;;;;;;;0.50;0.40;;;19.60;47.70;;;;;;4882944;29;20208;-37
2022/09/13 04:26:26;;;;;;;0.52;0.50;;;19.60;47.70;;;;;;4881597;29;20247;-34
2022/09/13 04:28:57;;;;;;;0.43;0.40;;;19.60;47.70;;;;;;4882154;29;20201;-43
2022/09/13 04:31:27;;;;;;;0.40;0.40;;;19.60;47.70;;;;;;4881665;29;20209;-35
2022/09/13 04:33:59;;;;;;;0.85;0.50;;;19.60;47.70;;;;;;4881283;29;20220;-35
2022/09/13 04:36:30;;;;;;;0.60;0.50;;;19.60;47.80;;;;;;4880906;29;20228;-38
2022/09/13 04:39:03;;;;;;;1.33;0.45;;;19.60;48.00;;;;;;4881807;29;20204;-34
2022/09/13 04:41:34;;;;;;;0.82;0.40;;;19.60;48.00;;;;;;4891720;29;20200;-34
2022/09/13 04:44:05;;;;;;;0.55;0.45;;;19.70;48.10;;;;;;4899941;29;20281;-36
2022/09/13 04:46:36;;;;;;;0.73;0.57;;;19.60;48.00;;;;;;4900155;29;20302;-36
2022/09/13 04:49:06;;;;;;;0.40;0.40;;;19.60;48.00;;;;;;4899867;29;20196;-35
2022/09/13 04:51:37;;;;;;;0.43;0.43;;;19.60;47.90;;;;;;4900494;29;20197;-37
2022/09/13 04:54:11;;;;;;;0.70;0.60;;;19.70;47.90;;;;;;4891341;29;20208;-36
2022/09/13 04:56:42;;;;;;;0.75;0.50;;;19.60;48.00;;;;;;4881648;29;20235;-35
2022/09/13 04:59:13;;;;;;;1.00;0.47;;;19.60;48.00;;;;;;4897933;29;20208;-37
2022/09/13 05:01:44;;;;;;;0.55;0.43;;;19.70;48.10;;;;;;4892802;29;20218;-35
2022/09/13 05:04:15;;;;;;;0.73;0.50;;;19.70;47.80;;;;;;4878003;29;21707;-40
2022/09/13 05:06:47;;;;;;;0.52;0.50;;;19.60;47.90;;;;;;4882248;29;20224;-35
2022/09/13 05:09:19;;;;;;;0.68;0.40;;;19.60;48.00;;;;;;4882357;29;20276;-39
2022/09/13 05:11:50;;;;;;;0.52;0.47;;;19.60;48.30;;;;;;4881968;29;20574;-36
2022/09/13 05:14:21;;;;;;;0.40;0.40;;;19.70;48.00;;;;;;4882185;29;20197;-40
2022/09/13 05:16:52;;;;;;;0.40;0.40;;;19.60;47.70;;;;;;4882452;29;20260;-36
2022/09/13 05:19:22;;;;;;;0.57;0.35;;;19.60;47.70;;;;;;4881512;29;20198;-43
2022/09/13 05:21:53;;;;;;;0.60;0.60;;;19.60;47.70;;;;;;4879553;29;20694;-39
2022/09/13 05:24:25;;;;;;;0.70;0.70;;;19.60;47.70;;;;;;4879665;29;20576;-39
2022/09/13 05:26:56;;;;;;;0.70;0.63;;;19.60;47.60;;;;;;4883418;29;20221;-39
2022/09/13 05:29:27;;;;;;;0.80;0.50;;;19.60;47.40;;;;;;4893620;29;20190;-36
2022/09/13 05:31:57;;;;;;;0.57;0.50;;;19.60;47.50;;;;;;4879146;29;20212;-41
2022/09/13 05:34:28;;;;;;;1.40;0.68;;;19.60;47.90;;;;;;4879329;29;20194;-42
2022/09/13 05:36:59;;;;;;;1.10;0.75;;;19.60;48.10;;;;;;4878651;29;20601;-41
2022/09/13 05:39:31;;;;;;;1.17;0.50;;;19.60;48.10;;;;;;4879407;29;20190;-42
2022/09/13 05:42:02;;;;;;;1.13;0.50;;;19.60;48.10;;;;;;4892227;29;20197;-37
2022/09/13 05:44:33;;;;;;;0.77;0.63;;;19.60;48.00;;;;;;4892911;29;20190;-44
2022/09/13 05:47:04;;;;;;;0.75;0.50;;;19.70;48.10;;;;;;4881138;29;20589;-34
2022/09/13 05:49:35;;;;;;;0.40;0.40;;;19.60;48.00;;;;;;4877771;29;20289;-34
2022/09/13 05:52:06;;;;;;;0.85;0.60;;;19.60;48.10;;;;;;4879399;29;20574;-36
2022/09/13 05:54:38;;;;;;;1.05;0.70;;;19.60;48.10;;;;;;4878219;29;20204;-35
2022/09/13 05:57:09;;;;;;;0.70;0.50;;;19.60;48.20;;;;;;4879148;29;20229;-40
2022/09/13 05:59:40;;;;;;;1.00;0.60;;;19.60;48.30;;;;;;4878607;29;20646;-43
2022/09/13 06:02:12;;;;;;;0.50;0.50;;;19.50;48.30;;;;;;4878942;29;20237;-38
2022/09/13 06:04:44;;;;;;;0.50;0.50;;;19.50;48.30;;;;;;4878586;29;20216;-35
2022/09/13 06:07:15;;;;;;;0.50;0.50;;;19.50;48.30;;;;;;4878483;29;20229;-45
2022/09/13 06:09:48;;;;;;;0.77;0.70;;;19.50;48.30;;;;;;4878269;29;20193;-39
2022/09/13 06:12:19;;;;;;;0.50;0.50;;;19.50;48.20;;;;;;4879000;29;20588;-36
2022/09/13 06:14:49;;;;;;;0.60;0.60;;;19.50;48.30;;;;;;4878348;29;20190;-36
2022/09/13 06:17:20;;;;;;;0.55;0.55;;;19.50;48.30;;;;;;4877061;29;20308;-40
2022/09/13 06:19:51;;;;;;;0.60;0.60;;;19.40;48.30;;;;;;4878634;29;20219;-35
2022/09/13 06:22:21;;;;;;;0.70;0.65;;;19.40;48.30;;;;;;4878208;29;20205;-42
2022/09/13 06:24:54;;;;;;;0.65;0.60;;;19.30;48.20;;;;;;4879510;29;20206;-37
2022/09/13 06:27:24;;;;;;;0.60;0.60;;;19.30;48.20;;;;;;4878465;29;20233;-40
2022/09/13 06:29:56;;;;;;;0.68;0.68;;;19.30;48.30;;;;;;4878002;29;20201;-42
2022/09/13 06:32:26;;;;;;;0.70;0.70;;;19.30;48.40;;;;;;4878168;29;20260;-43
2022/09/13 06:34:57;;;;;;;0.43;0.43;;;19.20;48.40;;;;;;4877570;29;20194;-42
2022/09/13 06:37:28;;;;;;;0.65;0.55;;;19.20;48.40;;;;;;4878162;29;20233;-35
2022/09/13 06:40:00;;;;;;;0.60;0.60;;;19.10;48.30;;;;;;4877401;29;20674;-36
2022/09/13 06:42:31;;;;;;;0.75;0.73;;;19.20;48.40;;;;;;4895607;29;20209;-40
2022/09/13 06:45:02;;;;;;;0.50;0.50;;;19.10;48.40;;;;;;4896856;29;20201;-35
2022/09/13 06:47:32;;;;;;;0.90;0.77;;;19.10;48.60;;;;;;4888709;29;20221;-41
2022/09/13 06:50:03;;;;;;;0.85;0.77;;;19.00;48.50;;;;;;4878114;29;20205;-38
2022/09/13 06:52:34;;;;;;;1.30;0.90;;;19.00;48.50;;;;;;4878250;29;20201;-35
2022/09/13 06:55:07;;;;;;;0.73;0.50;;;19.00;48.60;;;;;;4877177;29;20220;-46
2022/09/13 06:57:37;;;;;;;0.85;0.63;;;18.90;48.60;;;;;;4877858;29;20229;-41
2022/09/13 07:00:09;;;;;;;0.70;0.70;;;18.90;48.60;;;;;;4878098;29;20232;-35
2022/09/13 07:02:39;;;;;;;0.95;0.60;;;18.90;48.70;;;;;;4876956;29;20594;-35
2022/09/13 07:05:10;;;;;;;0.80;0.70;;;18.80;48.70;;;;;;4877934;29;20598;-37
2022/09/13 07:07:41;;;;;;;0.90;0.70;;;18.80;48.70;;;;;;4877277;29;20229;-38
2022/09/13 07:10:14;;;;;;;0.77;0.70;;;18.80;48.70;;;;;;4877153;29;20220;-42
2022/09/13 07:12:45;;;;;;;1.20;0.80;;;18.80;48.80;;;;;;4877496;29;20233;-46
2022/09/13 07:15:16;;;;;;;1.40;0.95;;;18.80;48.80;;;;;;4877595;29;20210;-42
2022/09/13 07:17:46;;;;;;;1.00;0.90;;;18.70;49.20;;;;;;4877166;29;20233;-45
2022/09/13 07:20:17;;;;;;;1.00;0.70;;;18.70;49.30;;;;;;4878022;29;20205;-37
2022/09/13 07:22:48;;;;;;;1.00;0.70;;;18.70;49.20;;;;;;4877406;29;20197;-36
2022/09/13 07:25:20;;;;;;;1.63;0.70;;;18.70;49.30;;;;;;4876968;29;20210;-41
2022/09/13 07:27:51;;;;;;;0.93;0.73;;;18.60;49.30;;;;;;4878017;29;20222;-42
2022/09/13 07:30:21;;;;;;;1.25;1.10;;;18.60;49.30;;;;;;4877055;29;20567;-35
2022/09/13 07:32:52;;;;;;;1.80;0.80;;;18.60;49.40;;;;;;4876627;29;20201;-36
2022/09/13 07:35:23;;;;;;;1.13;0.93;;;18.50;49.30;;;;;;4875996;29;20202;-41
2022/09/13 07:37:53;;;;;;;2.15;0.77;;;18.50;49.40;;;;;;4886778;29;20239;-36
2022/09/13 07:40:26;;;;;;;0.85;0.82;;;18.50;49.40;;;;;;4888336;29;20205;-37
2022/09/13 07:42:57;;;;;;;2.38;0.82;;;18.50;49.40;;;;;;4893778;29;20201;-39
2022/09/13 07:45:28;;;;;;;1.33;0.77;;;18.50;49.40;;;;;;4892700;29;20264;-36
2022/09/13 07:47:59;;;;;;;1.55;0.80;;;18.50;49.50;;;;;;4893216;29;20247;-36
2022/09/13 07:50:29;;;;;;;0.73;0.73;;;18.40;49.50;;;;;;4893481;29;20207;-37
2022/09/13 07:53:00;;;;;;;1.05;0.77;;;18.40;49.50;;;;;;4892229;29;20768;-35
2022/09/13 07:55:33;;;;;;;0.88;0.88;;;18.40;49.60;;;;;;4876949;29;20794;-40
2022/09/13 07:58:04;;;;;;;0.68;0.68;;;18.30;49.60;;;;;;4875666;29;20604;-44
2022/09/13 08:00:35;;;;;;;0.98;0.70;;;18.30;49.70;;;;;;4875713;29;20206;-35
2022/09/13 08:03:05;;;;;;;0.55;0.55;;;18.20;49.70;;;;;;4875490;29;20214;-35
2022/09/13 08:05:41;;;;;;;0.90;0.65;;;18.20;49.70;;;;;;4875490;29;20552;-35
2022/09/13 08:08:12;;;;;;;1.65;0.82;;;18.20;49.70;;;;;;4880871;29;20228;-35
2022/09/13 08:10:44;;;;;;;0.95;0.75;;;18.20;49.70;;;;;;4884193;29;20571;-35
2022/09/13 08:13:16;;;;;;;1.13;0.70;;;18.20;49.80;;;;;;4875040;29;20205;-35
2022/09/13 08:15:48;;;;;;;2.78;0.90;;;18.20;49.80;;;;;;4875613;29;20705;-38
2022/09/13 08:18:19;;;;;;;1.02;0.73;;;18.10;49.70;;;;;;4875738;29;20230;-36
2022/09/13 08:20:50;;;;;;;0.80;0.70;;;18.10;49.80;;;;;;4875847;29;20221;-37
2022/09/13 08:23:21;;;;;;;0.70;0.70;;;18.10;49.90;;;;;;4881797;29;20197;-37
2022/09/13 08:25:54;;;;;;;0.80;0.63;;;18.10;49.90;;;;;;4894204;29;20204;-34
2022/09/13 08:28:25;;;;;;;0.65;0.65;;;18.00;50.00;;;;;;4894889;29;20410;-35
2022/09/13 08:30:55;;;;;;;0.70;0.70;;;18.00;50.00;;;;;;4894298;29;20204;-39
2022/09/13 08:33:26;;;;;;;1.90;0.70;;;17.90;50.00;;;;;;4893918;29;20228;-37
2022/09/13 08:35:57;;;;;;;0.93;0.70;;;17.90;50.10;;;;;;4893959;29;20209;-37
2022/09/13 08:38:28;;;;;;;1.13;0.80;;;17.90;50.10;;;;;;4889931;29;20232;-36
2022/09/13 08:41:04;;;;;;;0.70;0.70;;;17.90;50.10;;;;;;4873849;29;20205;-35
2022/09/13 08:43:47;;;;;;;0.70;0.65;;;17.90;50.20;;;;;;4894669;29;20236;-40
2022/09/13 08:46:29;;;;;;;0.90;0.70;;;17.80;50.20;;;;;;4893903;29;20224;-35
2022/09/13 08:49:03;;;;;;;1.15;0.70;;;17.80;50.10;;;;;;4893980;29;20197;-35
2022/09/13 08:51:37;;;;;;;0.70;0.60;;;17.80;50.20;;;;;;4894298;29;20692;-38
2022/09/13 08:54:10;;;;;;;1.08;0.85;;;17.80;50.20;;;;;;4893516;29;20208;-36
2022/09/13 08:56:50;;;;;;;1.00;0.90;;;17.70;50.30;;;;;;4887089;29;20241;-38
2022/09/13 08:59:50;;;;;;;1.35;0.80;;;17.70;51.00;;;;;;4879111;29;20235;-39
2022/09/13 09:02:41;;;;;;;1.48;0.90;;;17.70;50.50;;;;;;4878699;29;20209;-37
2022/09/13 09:05:18;;;;;;;1.13;0.98;;;17.60;50.50;;;;;;4878749;29;20201;-38
2022/09/13 09:07:51;;;;;;;1.30;1.05;;;17.60;50.70;;;;;;4878643;29;20229;-38
2022/09/13 09:10:25;;;;;;;1.00;0.90;;;17.60;50.80;;;;;;4866418;29;20201;-46
2022/09/13 09:13:00;;;;;;;1.40;1.10;;;17.60;50.90;;;;;;4878262;29;20205;-44
2022/09/13 09:15:34;;;;;;;1.60;1.00;;;17.60;50.90;;;;;;4875722;29;20216;-43
2022/09/13 09:18:11;;;;;;;1.15;1.02;;;17.60;50.90;;;;;;4879144;29;20232;-44
2022/09/13 09:20:45;;;;;;;2.65;1.23;;;17.60;51.00;;;;;;4879113;29;20253;-40
2022/09/13 09:23:20;;;;;;;1.15;1.00;;;17.60;51.00;;;;;;4879449;29;20279;-40
2022/09/13 09:25:53;;;;;;;2.35;1.23;;;17.50;51.00;;;;;;4878963;29;20543;-43
2022/09/13 09:28:30;;;;;;;1.42;1.10;;;17.50;51.00;;;;;;4878891;29;20248;-37
2022/09/13 09:31:06;;;;;;;1.83;1.00;;;17.50;51.10;;;;;;4878936;29;20247;-40
2022/09/13 09:33:57;;;;;;;1.00;0.90;;;17.40;51.10;;;;;;4890489;29;20235;-41
2022/09/13 09:36:39;;;;;;;1.88;1.40;;;17.40;51.10;;;;;;4897965;29;20231;-42
2022/09/13 09:39:15;;;;;;;1.77;1.02;;;17.40;51.20;;;;;;4897975;29;20243;-36
2022/09/13 09:41:46;;;;;;;1.20;0.95;;;17.40;51.20;;;;;;4891062;29;20291;-35
2022/09/13 09:44:21;;;;;;;1.35;1.20;;;17.30;51.10;;;;;;4896772;29;20227;-36
2022/09/13 09:46:57;;;;;;;1.73;1.30;;;17.30;51.20;;;;;;4897236;29;20224;-36
2022/09/13 09:52:27;;;;;;;1.40;1.30;;;17.30;51.10;;;;;;4897550;29;20211;-36
2022/09/13 09:55:02;;;;;;;2.15;1.38;;;17.30;51.20;;;;;;4896226;29;20773;-38
2022/09/13 09:58:00;;;;;;;1.98;1.48;;;17.20;51.20;;;;;;4895731;29;20303;-38
2022/09/13 10:00:35;;;;;;;1.73;1.30;;;17.20;51.20;;;;;;4886480;29;20212;-36
2022/09/13 10:03:07;;;;;;;2.78;1.73;;;17.20;51.30;;;;;;4879350;29;20676;-36
2022/09/13 10:05:38;;;;;;;2.08;1.35;;;17.10;51.30;;;;;;4878717;29;20198;-41
2022/09/13 10:08:10;;;;;;;1.90;1.35;;;17.10;51.30;;;;;;4877007;29;20229;-35
2022/09/13 10:10:43;;;;;;;3.75;2.17;;;17.10;51.40;;;;;;4871423;29;20685;-35
2022/09/13 10:13:18;;;;;;;3.45;1.95;;;17.10;51.50;;;;;;4878444;29;20201;-35
2022/09/13 10:16:01;;;;;;;4.80;1.90;;;17.10;51.40;;;;;;4878526;29;20661;-35
2022/09/13 10:18:33;;;;;;;3.50;2.05;;;17.10;51.40;;;;;;4878525;29;20225;-38
2022/09/13 10:21:06;;;;;;;5.75;2.65;;;17.10;51.40;;;;;;4878962;29;20205;-37
2022/09/13 10:23:38;;;;;;;3.83;2.08;;;17.00;51.40;;;;;;4878331;29;20202;-41
2022/09/13 10:26:12;;;;;;;3.88;2.05;;;17.00;51.40;;;;;;4878077;29;20696;-37
2022/09/13 10:28:49;;;;;;;4.10;2.13;;;17.00;51.50;;;;;;4878478;29;20212;-40
2022/09/13 10:31:22;;;;;;;3.42;2.17;;;17.00;51.50;;;;;;4878413;29;20200;-38
2022/09/13 10:34:00;;;;;;;3.78;2.00;;;16.90;51.60;;;;;;4877695;29;20548;-37
2022/09/13 10:36:33;;;;;;;4.22;2.50;;;16.90;51.60;;;;;;4877719;29;20224;-39
2022/09/13 10:39:06;;;;;;;5.65;2.35;;;16.90;51.70;;;;;;4877591;29;20233;-38
2022/09/13 10:41:40;;;;;;;5.32;2.33;;;16.90;51.70;;;;;;4887592;29;20205;-44
2022/09/13 10:44:31;;;;;;;5.20;2.30;;;16.90;51.70;;;;;;4896852;29;20204;-36
2022/09/13 10:47:07;;;;;;;6.68;2.85;;;16.80;51.70;;;;;;4886088;29;20232;-38
2022/09/13 10:49:50;;;;;;;4.53;2.40;;;16.80;51.70;;;;;;4876848;29;20207;-37
2022/09/13 10:52:35;;;;;;;5.00;2.17;;;16.80;51.70;;;;;;4877599;29;20718;-40
2022/09/13 10:55:27;;;;;;;4.60;2.47;;;16.80;51.70;;;;;;4877874;29;20240;-36
2022/09/13 10:58:14;;;;;;;6.15;2.88;;;16.80;51.70;;;;;;4877565;29;20228;-38
2022/09/13 11:00:57;;;;;;;7.88;3.08;;;16.70;51.80;;;;;;4877732;29;20236;-36
2022/09/13 11:03:48;;;;;;;5.82;2.70;;;16.70;51.90;;;;;;4877676;29;20201;-37
2022/09/13 11:06:25;;;;;;;7.43;2.90;;;16.70;51.90;;;;;;4877063;29;20585;-38
2022/09/13 11:09:04;;;;;;;4.65;2.72;;;16.60;51.90;;;;;;4874540;29;20631;-45
2022/09/13 11:11:41;;;;;;;4.35;2.42;;;16.60;52.00;;;;;;4875642;29;20697;-37
2022/09/13 11:14:35;;;;;;;5.70;2.88;;;16.60;52.00;;;;;;4877395;29;20673;-40
2022/09/13 11:17:15;;;;;;;5.95;2.67;;;16.60;52.00;;;;;;4877979;29;20225;-35
2022/09/13 11:20:11;;;;;;;7.38;2.70;;;16.50;52.00;;;;;;4876242;29;20225;-35
2022/09/13 11:23:01;;;;;;;5.80;2.88;;;16.50;52.00;;;;;;4877176;29;20201;-35
2022/09/13 11:25:45;;;;;;;5.68;3.10;;;16.50;52.00;;;;;;4877236;29;20663;-51
2022/09/13 11:28:23;;;;;;;7.18;3.33;;;16.50;52.00;;;;;;4874743;29;20217;-35
2022/09/13 11:31:07;;;;;;;5.65;2.95;;;16.50;52.00;;;;;;4871028;29;20205;-36
2022/09/13 11:33:50;;;;;;;8.55;3.35;;;16.40;52.00;;;;;;4879429;29;20224;-39
2022/09/13 11:36:38;;;;;;;8.48;3.10;;;16.40;52.00;;;;;;4895815;29;20229;-41
2022/09/13 11:39:19;;;;;;;5.90;2.60;;;16.40;52.00;;;;;;4894773;29;20233;-46
2022/09/13 11:41:57;;;;;;;6.60;3.20;;;16.30;52.10;;;;;;4876589;29;20654;-35
2022/09/13 11:44:53;;;;;;;6.43;2.67;;;16.30;52.10;;;;;;4877391;29;20205;-35
2022/09/13 11:47:35;;;;;;;5.70;3.13;;;16.30;52.20;;;;;;4891931;29;20216;-35
2022/09/13 11:50:24;;;;;;;7.13;3.08;;;16.30;52.20;;;;;;4895807;29;20208;-35
2022/09/13 11:53:11;;;;;;;5.68;2.85;;;16.30;52.20;;;;;;4895325;29;20661;-35
2022/09/13 11:55:47;;;;;;;7.07;3.10;;;16.30;52.20;;;;;;4894926;29;20694;-36
2022/09/13 11:58:22;;;;;;;7.03;2.97;;;16.20;52.10;;;;;;4895639;29;20229;-38
2022/09/13 12:00:57;;;;;;;6.43;3.05;;;16.20;52.10;;;;;;4895572;29;20203;-35
2022/09/13 12:03:32;;;;;;;7.22;3.17;;;16.20;52.20;;;;;;4894758;29;20208;-35
2022/09/13 12:06:09;;;;;;;5.63;2.60;;;16.20;52.20;;;;;;4894376;29;20223;-36
2022/09/13 12:08:47;;;;;;;5.97;2.35;;;16.20;52.30;;;;;;4894291;29;20196;-36
2022/09/13 12:11:23;;;;;;;6.22;3.25;;;16.10;52.20;;;;;;4876133;29;20209;-35
2022/09/13 12:13:56;;;;;;;5.43;2.95;;;16.10;52.30;;;;;;4877182;29;20205;-37
2022/09/13 12:16:32;;;;;;;4.63;2.75;;;16.10;52.30;;;;;;4876744;29;20221;-35
2022/09/13 12:19:07;;;;;;;6.15;3.22;;;16.00;52.30;;;;;;4865449;29;20226;-36
2022/09/13 12:21:41;;;;;;;5.40;2.97;;;16.00;52.30;;;;;;4877082;29;20208;-37
2022/09/13 12:24:18;;;;;;;5.28;2.60;;;16.00;52.30;;;;;;4877056;29;20209;-36
2022/09/13 12:26:54;;;;;;;4.72;2.78;;;16.00;52.30;;;;;;4876108;29;20225;-37
2022/09/13 12:29:32;;;;;;;5.75;2.63;;;16.00;52.30;;;;;;4877875;29;20206;-42
2022/09/13 12:32:06;;;;;;;5.65;2.45;;;16.00;52.30;;;;;;4878916;29;20204;-36
2022/09/13 12:34:44;;;;;;;6.90;2.55;;;15.90;52.30;;;;;;4879841;29;20206;-38
2022/09/13 12:37:29;;;;;;;4.55;2.63;;;15.90;52.30;;;;;;4879615;29;20701;-36
2022/09/13 12:40:23;;;;;;;5.90;2.65;;;15.90;52.30;;;;;;4879947;29;20240;-39
2022/09/13 12:43:13;;;;;;;4.70;2.60;;;15.90;52.30;;;;;;4869223;29;20220;-39
2022/09/13 12:46:01;;;;;;;6.55;2.83;;;15.90;52.30;;;;;;4879197;29;20673;-35
2022/09/13 12:49:09;;;;;;;4.95;2.60;;;15.80;52.30;;;;;;4879139;29;20206;-35
2022/09/13 12:51:57;;;;;;;7.20;3.03;;;15.80;52.40;;;;;;4879305;29;20544;-39
2022/09/13 12:55:00;;;;;;;6.10;2.50;;;15.80;52.40;;;;;;4897419;29;20212;-35
2022/09/13 12:57:42;;;;;;;7.10;2.92;;;15.80;52.40;;;;;;4897482;29;20224;-35
2022/09/13 13:00:30;;;;;;;5.30;2.60;;;15.70;52.30;;;;;;4894076;29;20702;-35
2022/09/13 13:03:10;;;;;;;7.90;3.25;;;15.70;52.30;;;;;;4875518;29;20198;-35
2022/09/13 13:05:44;;;;;;;4.57;2.67;;;15.70;52.40;;;;;;4877734;29;20738;-35
2022/09/13 13:08:29;;;;;;;5.07;2.58;;;15.70;52.40;;;;;;4877501;29;20213;-35
2022/09/13 13:11:07;;;;;;;4.38;2.35;;;15.70;52.40;;;;;;4874567;29;20205;-35
2022/09/13 13:13:42;;;;;;;6.25;2.80;;;15.70;52.40;;;;;;4875296;29;20572;-36
2022/09/13 13:16:29;;;;;;;6.65;2.92;;;15.60;52.40;;;;;;4878444;29;20201;-40
2022/09/13 13:19:01;;;;;;;5.72;2.80;;;15.60;52.40;;;;;;4878472;29;20209;-35
2022/09/13 13:21:38;;;;;;;5.28;2.50;;;15.60;52.40;;;;;;4878409;29;20204;-35
2022/09/13 13:24:47;;;;;;;6.32;2.58;;;15.60;52.50;;;;;;4859969;29;20213;-38
2022/09/13 13:27:48;;;;;;;5.10;2.60;;;15.60;52.50;;;;;;4859483;29;20230;-35
2022/09/13 13:30:52;;;;;;;5.05;2.80;;;15.60;52.50;;;;;;4858215;29;20611;-35
2022/09/13 13:33:30;;;;;;;6.47;2.78;;;15.50;52.40;;;;;;4860107;29;20265;-38
2022/09/13 13:36:24;;;;;;;6.35;2.65;;;15.50;52.40;;;;;;4859699;29;20711;-35
2022/09/13 13:38:56;;;;;;;3.95;2.17;;;15.50;52.50;;;;;;4894240;29;20201;-36